sensor_id;sensor_type;location;lat;lon;timestamp;temperature;humidity
5940;DHT22;2995;-31.998;115.906;2023-04-03T00:02:06;17.10;99.90
5940;DHT22;2995;-31.998;115.906;2023-04-03T00:04:40;17.20;99.90
5940;DHT22;2995;-31.998;115.906;2023-04-03T00:07:11;17.30;99.90
5940;DHT22;2995;-31.998;115.906;2023-04-03T00:09:43;17.40;99.90
5940;DHT22;2995;-31.998;115.906;2023-04-03T00:12:17;17.60;99.90
5940;DHT22;2995;-31.998;115.906;2023-04-03T00:14:49;17.70;99.90
5940;DHT22;2995;-31.998;115.906;2023-04-03T00:17:20;17.90;99.90
5940;DHT22;2995;-31.998;115.906;2023-04-03T00:19:53;18.00;99.90
5940;DHT22;2995;-31.998;115.906;2023-04-03T00:22:24;18.20;99.90
5940;DHT22;2995;-31.998;115.906;2023-04-03T00:24:56;18.20;99.90
5940;DHT22;2995;-31.998;115.906;2023-04-03T00:27:28;18.30;99.90
5940;DHT22;2995;-31.998;115.906;2023-04-03T00:29:59;18.30;99.90
5940;DHT22;2995;-31.998;115.906;2023-04-03T00:32:30;18.50;99.90
5940;DHT22;2995;-31.998;115.906;2023-04-03T00:35:04;18.60;99.90
5940;DHT22;2995;-31.998;115.906;2023-04-03T00:37:36;18.70;99.90
5940;DHT22;2995;-31.998;115.906;2023-04-03T00:40:08;18.70;99.90
5940;DHT22;2995;-31.998;115.906;2023-04-03T00:42:40;18.90;99.90
5940;DHT22;2995;-31.998;115.906;2023-04-03T00:45:28;19.10;99.90
5940;DHT22;2995;-31.998;115.906;2023-04-03T00:48:01;19.30;99.90
5940;DHT22;2995;-31.998;115.906;2023-04-03T00:50:38;19.40;99.90
5940;DHT22;2995;-31.998;115.906;2023-04-03T00:53:13;19.50;99.90
5940;DHT22;2995;-31.998;115.906;2023-04-03T00:55:48;19.50;99.90
5940;DHT22;2995;-31.998;115.906;2023-04-03T00:58:21;19.60;99.90
5940;DHT22;2995;-31.998;115.906;2023-04-03T01:00:57;19.70;99.90
5940;DHT22;2995;-31.998;115.906;2023-04-03T01:03:29;20.00;99.90
5940;DHT22;2995;-31.998;115.906;2023-04-03T01:06:02;20.20;99.90
5940;DHT22;2995;-31.998;115.906;2023-04-03T01:08:34;20.40;99.90
5940;DHT22;2995;-31.998;115.906;2023-04-03T01:11:06;20.60;99.90
5940;DHT22;2995;-31.998;115.906;2023-04-03T01:13:37;20.70;99.90
5940;DHT22;2995;-31.998;115.906;2023-04-03T01:16:09;20.90;99.90
5940;DHT22;2995;-31.998;115.906;2023-04-03T01:18:40;21.00;99.90
5940;DHT22;2995;-31.998;115.906;2023-04-03T01:24:31;21.20;99.90
5940;DHT22;2995;-31.998;115.906;2023-04-03T01:27:06;21.40;99.90
5940;DHT22;2995;-31.998;115.906;2023-04-03T01:29:39;21.50;99.90
5940;DHT22;2995;-31.998;115.906;2023-04-03T01:32:13;21.50;99.90
5940;DHT22;2995;-31.998;115.906;2023-04-03T01:34:45;21.70;99.90
5940;DHT22;2995;-31.998;115.906;2023-04-03T01:37:16;21.70;99.90
5940;DHT22;2995;-31.998;115.906;2023-04-03T01:39:47;21.80;99.90
5940;DHT22;2995;-31.998;115.906;2023-04-03T01:42:19;22.00;99.90
5940;DHT22;2995;-31.998;115.906;2023-04-03T01:44:50;22.30;99.90
5940;DHT22;2995;-31.998;115.906;2023-04-03T01:47:23;22.40;99.90
5940;DHT22;2995;-31.998;115.906;2023-04-03T01:49:54;22.30;99.90
5940;DHT22;2995;-31.998;115.906;2023-04-03T01:52:26;22.40;99.90
5940;DHT22;2995;-31.998;115.906;2023-04-03T01:54:57;22.50;99.90
5940;DHT22;2995;-31.998;115.906;2023-04-03T01:57:28;22.50;99.90
5940;DHT22;2995;-31.998;115.906;2023-04-03T01:59:59;22.80;99.90
5940;DHT22;2995;-31.998;115.906;2023-04-03T02:02:32;22.90;99.90
5940;DHT22;2995;-31.998;115.906;2023-04-03T02:05:04;23.00;99.90
5940;DHT22;2995;-31.998;115.906;2023-04-03T02:07:35;22.80;99.90
5940;DHT22;2995;-31.998;115.906;2023-04-03T02:10:07;22.90;99.90
5940;DHT22;2995;-31.998;115.906;2023-04-03T02:12:39;23.00;99.90
5940;DHT22;2995;-31.998;115.906;2023-04-03T02:15:11;23.10;99.90
5940;DHT22;2995;-31.998;115.906;2023-04-03T02:17:44;23.20;99.90
5940;DHT22;2995;-31.998;115.906;2023-04-03T02:20:15;23.40;99.90
5940;DHT22;2995;-31.998;115.906;2023-04-03T02:22:47;23.50;99.90
5940;DHT22;2995;-31.998;115.906;2023-04-03T02:25:18;23.50;99.90
5940;DHT22;2995;-31.998;115.906;2023-04-03T02:27:49;23.60;99.90
5940;DHT22;2995;-31.998;115.906;2023-04-03T02:30:21;23.70;99.90
5940;DHT22;2995;-31.998;115.906;2023-04-03T02:32:54;23.70;99.90
5940;DHT22;2995;-31.998;115.906;2023-04-03T02:35:25;23.80;99.90
5940;DHT22;2995;-31.998;115.906;2023-04-03T02:37:56;23.90;99.90
5940;DHT22;2995;-31.998;115.906;2023-04-03T02:40:28;24.00;99.90
5940;DHT22;2995;-31.998;115.906;2023-04-03T02:42:59;24.10;99.90
5940;DHT22;2995;-31.998;115.906;2023-04-03T02:45:30;24.20;99.90
5940;DHT22;2995;-31.998;115.906;2023-04-03T02:48:04;24.20;99.90
5940;DHT22;2995;-31.998;115.906;2023-04-03T02:50:35;24.30;99.90
5940;DHT22;2995;-31.998;115.906;2023-04-03T02:53:06;24.50;99.90
5940;DHT22;2995;-31.998;115.906;2023-04-03T02:55:38;24.50;99.90
5940;DHT22;2995;-31.998;115.906;2023-04-03T02:58:09;24.60;99.90
5940;DHT22;2995;-31.998;115.906;2023-04-03T03:00:41;24.70;99.90
5940;DHT22;2995;-31.998;115.906;2023-04-03T03:03:14;24.80;99.90
5940;DHT22;2995;-31.998;115.906;2023-04-03T03:05:45;25.00;99.90
5940;DHT22;2995;-31.998;115.906;2023-04-03T03:08:16;24.90;99.90
5940;DHT22;2995;-31.998;115.906;2023-04-03T03:10:48;25.00;99.90
5940;DHT22;2995;-31.998;115.906;2023-04-03T03:13:19;25.30;99.90
5940;DHT22;2995;-31.998;115.906;2023-04-03T03:15:50;25.30;99.90
5940;DHT22;2995;-31.998;115.906;2023-04-03T03:18:24;25.20;99.90
5940;DHT22;2995;-31.998;115.906;2023-04-03T03:20:56;25.20;99.90
5940;DHT22;2995;-31.998;115.906;2023-04-03T03:23:29;25.20;99.90
5940;DHT22;2995;-31.998;115.906;2023-04-03T03:26:02;25.40;99.90
5940;DHT22;2995;-31.998;115.906;2023-04-03T03:28:34;25.50;99.90
5940;DHT22;2995;-31.998;115.906;2023-04-03T03:31:05;25.40;99.90
5940;DHT22;2995;-31.998;115.906;2023-04-03T03:33:39;25.50;99.90
5940;DHT22;2995;-31.998;115.906;2023-04-03T03:36:10;25.60;99.90
5940;DHT22;2995;-31.998;115.906;2023-04-03T03:38:41;25.90;99.90
5940;DHT22;2995;-31.998;115.906;2023-04-03T03:41:13;26.00;99.90
5940;DHT22;2995;-31.998;115.906;2023-04-03T03:43:44;26.10;99.90
5940;DHT22;2995;-31.998;115.906;2023-04-03T03:46:15;25.80;99.90
5940;DHT22;2995;-31.998;115.906;2023-04-03T03:48:49;26.00;99.90
5940;DHT22;2995;-31.998;115.906;2023-04-03T03:51:20;26.10;99.90
5940;DHT22;2995;-31.998;115.906;2023-04-03T03:53:51;26.20;99.90
5940;DHT22;2995;-31.998;115.906;2023-04-03T03:56:22;26.10;99.90
5940;DHT22;2995;-31.998;115.906;2023-04-03T03:58:54;26.30;99.90
5940;DHT22;2995;-31.998;115.906;2023-04-03T04:01:26;26.40;99.90
5940;DHT22;2995;-31.998;115.906;2023-04-03T04:03:59;26.50;99.90
5940;DHT22;2995;-31.998;115.906;2023-04-03T04:06:30;26.80;99.90
5940;DHT22;2995;-31.998;115.906;2023-04-03T04:09:02;26.90;99.90
5940;DHT22;2995;-31.998;115.906;2023-04-03T04:11:33;27.20;99.90
5940;DHT22;2995;-31.998;115.906;2023-04-03T04:14:04;27.20;99.90
5940;DHT22;2995;-31.998;115.906;2023-04-03T04:16:35;27.20;99.90
5940;DHT22;2995;-31.998;115.906;2023-04-03T04:19:09;27.20;99.90
5940;DHT22;2995;-31.998;115.906;2023-04-03T04:21:40;27.00;99.90
5940;DHT22;2995;-31.998;115.906;2023-04-03T04:24:11;27.10;99.90
5940;DHT22;2995;-31.998;115.906;2023-04-03T04:26:42;27.30;99.90
5940;DHT22;2995;-31.998;115.906;2023-04-03T04:29:14;27.20;99.90
5940;DHT22;2995;-31.998;115.906;2023-04-03T04:31:45;26.80;99.90
5940;DHT22;2995;-31.998;115.906;2023-04-03T04:34:19;26.40;99.90
5940;DHT22;2995;-31.998;115.906;2023-04-03T04:36:50;26.50;99.90
5940;DHT22;2995;-31.998;115.906;2023-04-03T04:39:21;26.70;99.90
5940;DHT22;2995;-31.998;115.906;2023-04-03T04:41:53;26.70;99.90
5940;DHT22;2995;-31.998;115.906;2023-04-03T04:44:24;27.00;99.90
5940;DHT22;2995;-31.998;115.906;2023-04-03T04:46:55;27.10;99.90
5940;DHT22;2995;-31.998;115.906;2023-04-03T04:49:28;27.40;99.90
5940;DHT22;2995;-31.998;115.906;2023-04-03T04:51:59;27.50;99.90
5940;DHT22;2995;-31.998;115.906;2023-04-03T04:54:31;27.80;99.90
5940;DHT22;2995;-31.998;115.906;2023-04-03T04:57:02;27.80;99.90
5940;DHT22;2995;-31.998;115.906;2023-04-03T04:59:33;27.70;99.90
5940;DHT22;2995;-31.998;115.906;2023-04-03T05:02:04;27.50;99.90
5940;DHT22;2995;-31.998;115.906;2023-04-03T05:04:37;27.40;99.90
5940;DHT22;2995;-31.998;115.906;2023-04-03T05:07:08;27.10;99.90
5940;DHT22;2995;-31.998;115.906;2023-04-03T05:09:40;27.00;99.90
5940;DHT22;2995;-31.998;115.906;2023-04-03T05:12:11;27.00;99.90
5940;DHT22;2995;-31.998;115.906;2023-04-03T05:14:42;27.00;99.90
5940;DHT22;2995;-31.998;115.906;2023-04-03T05:17:13;27.10;99.90
5940;DHT22;2995;-31.998;115.906;2023-04-03T05:19:46;27.20;99.90
5940;DHT22;2995;-31.998;115.906;2023-04-03T05:22:18;27.40;99.90
5940;DHT22;2995;-31.998;115.906;2023-04-03T05:24:49;27.60;99.90
5940;DHT22;2995;-31.998;115.906;2023-04-03T05:27:20;27.30;99.90
5940;DHT22;2995;-31.998;115.906;2023-04-03T05:29:54;27.30;99.90
5940;DHT22;2995;-31.998;115.906;2023-04-03T05:32:25;27.20;99.90
5940;DHT22;2995;-31.998;115.906;2023-04-03T05:34:59;27.30;99.90
5940;DHT22;2995;-31.998;115.906;2023-04-03T05:37:30;27.40;99.90
5940;DHT22;2995;-31.998;115.906;2023-04-03T05:40:02;27.30;99.90
5940;DHT22;2995;-31.998;115.906;2023-04-03T05:42:33;27.20;99.90
5940;DHT22;2995;-31.998;115.906;2023-04-03T05:45:05;27.10;99.90
5940;DHT22;2995;-31.998;115.906;2023-04-03T05:47:36;27.30;99.90
5940;DHT22;2995;-31.998;115.906;2023-04-03T05:50:10;27.30;99.90
5940;DHT22;2995;-31.998;115.906;2023-04-03T05:52:44;27.20;99.90
5940;DHT22;2995;-31.998;115.906;2023-04-03T05:55:16;27.20;99.90
5940;DHT22;2995;-31.998;115.906;2023-04-03T05:57:47;27.10;99.90
5940;DHT22;2995;-31.998;115.906;2023-04-03T06:00:19;27.00;99.90
5940;DHT22;2995;-31.998;115.906;2023-04-03T06:02:51;27.10;99.90
5940;DHT22;2995;-31.998;115.906;2023-04-03T06:05:24;27.10;99.90
5940;DHT22;2995;-31.998;115.906;2023-04-03T06:07:56;27.00;99.90
5940;DHT22;2995;-31.998;115.906;2023-04-03T06:10:27;27.00;99.90
5940;DHT22;2995;-31.998;115.906;2023-04-03T06:12:58;27.00;99.90
5940;DHT22;2995;-31.998;115.906;2023-04-03T06:15:30;27.00;99.90
5940;DHT22;2995;-31.998;115.906;2023-04-03T06:18:01;27.10;99.90
5940;DHT22;2995;-31.998;115.906;2023-04-03T06:20:35;26.90;99.90
5940;DHT22;2995;-31.998;115.906;2023-04-03T06:23:06;26.70;99.90
5940;DHT22;2995;-31.998;115.906;2023-04-03T06:25:37;26.70;99.90
5940;DHT22;2995;-31.998;115.906;2023-04-03T06:28:09;26.60;99.90
5940;DHT22;2995;-31.998;115.906;2023-04-03T06:30:41;26.60;99.90
5940;DHT22;2995;-31.998;115.906;2023-04-03T06:33:12;26.60;99.90
5940;DHT22;2995;-31.998;115.906;2023-04-03T06:35:45;26.60;99.90
5940;DHT22;2995;-31.998;115.906;2023-04-03T06:38:16;26.50;99.90
5940;DHT22;2995;-31.998;115.906;2023-04-03T06:40:47;26.50;99.90
5940;DHT22;2995;-31.998;115.906;2023-04-03T06:43:19;26.50;99.90
5940;DHT22;2995;-31.998;115.906;2023-04-03T06:45:50;26.50;99.90
5940;DHT22;2995;-31.998;115.906;2023-04-03T06:48:22;26.60;99.90
5940;DHT22;2995;-31.998;115.906;2023-04-03T06:50:55;26.60;99.90
5940;DHT22;2995;-31.998;115.906;2023-04-03T06:53:26;26.50;99.90
5940;DHT22;2995;-31.998;115.906;2023-04-03T06:55:57;26.50;99.90
5940;DHT22;2995;-31.998;115.906;2023-04-03T06:58:29;26.40;99.90
5940;DHT22;2995;-31.998;115.906;2023-04-03T07:01:00;26.40;99.90
5940;DHT22;2995;-31.998;115.906;2023-04-03T07:03:31;26.30;99.90
5940;DHT22;2995;-31.998;115.906;2023-04-03T07:06:05;26.10;99.90
5940;DHT22;2995;-31.998;115.906;2023-04-03T07:08:37;26.20;99.90
5940;DHT22;2995;-31.998;115.906;2023-04-03T07:11:08;26.10;99.90
5940;DHT22;2995;-31.998;115.906;2023-04-03T07:13:40;26.20;99.90
5940;DHT22;2995;-31.998;115.906;2023-04-03T07:16:11;26.10;99.90
5940;DHT22;2995;-31.998;115.906;2023-04-03T07:18:42;26.10;99.90
5940;DHT22;2995;-31.998;115.906;2023-04-03T07:21:15;26.00;99.90
5940;DHT22;2995;-31.998;115.906;2023-04-03T07:23:47;26.00;99.90
5940;DHT22;2995;-31.998;115.906;2023-04-03T07:26:18;25.90;99.90
5940;DHT22;2995;-31.998;115.906;2023-04-03T07:28:50;26.00;99.90
5940;DHT22;2995;-31.998;115.906;2023-04-03T07:31:21;25.80;99.90
5940;DHT22;2995;-31.998;115.906;2023-04-03T07:33:53;25.80;99.90
5940;DHT22;2995;-31.998;115.906;2023-04-03T07:36:26;25.80;99.90
5940;DHT22;2995;-31.998;115.906;2023-04-03T07:38:57;25.80;99.90
5940;DHT22;2995;-31.998;115.906;2023-04-03T07:41:29;25.60;99.90
5940;DHT22;2995;-31.998;115.906;2023-04-03T07:44:02;25.60;99.90
5940;DHT22;2995;-31.998;115.906;2023-04-03T07:46:33;25.60;99.90
5940;DHT22;2995;-31.998;115.906;2023-04-03T07:49:04;25.60;99.90
5940;DHT22;2995;-31.998;115.906;2023-04-03T07:51:37;25.60;99.90
5940;DHT22;2995;-31.998;115.906;2023-04-03T07:54:09;25.60;99.90
5940;DHT22;2995;-31.998;115.906;2023-04-03T07:56:40;25.50;99.90
5940;DHT22;2995;-31.998;115.906;2023-04-03T07:59:11;25.30;99.90
5940;DHT22;2995;-31.998;115.906;2023-04-03T08:01:43;25.30;99.90
5940;DHT22;2995;-31.998;115.906;2023-04-03T08:04:14;25.20;99.90
5940;DHT22;2995;-31.998;115.906;2023-04-03T08:06:47;25.20;99.90
5940;DHT22;2995;-31.998;115.906;2023-04-03T08:09:19;25.10;99.90
5940;DHT22;2995;-31.998;115.906;2023-04-03T08:11:50;25.00;99.90
5940;DHT22;2995;-31.998;115.906;2023-04-03T08:14:21;25.00;99.90
5940;DHT22;2995;-31.998;115.906;2023-04-03T08:16:53;25.00;99.90
5940;DHT22;2995;-31.998;115.906;2023-04-03T08:19:24;25.00;99.90
5940;DHT22;2995;-31.998;115.906;2023-04-03T08:21:58;24.90;99.90
5940;DHT22;2995;-31.998;115.906;2023-04-03T08:24:30;24.80;99.90
5940;DHT22;2995;-31.998;115.906;2023-04-03T08:27:02;24.90;99.90
5940;DHT22;2995;-31.998;115.906;2023-04-03T08:29:33;25.00;99.90
5940;DHT22;2995;-31.998;115.906;2023-04-03T08:32:05;25.00;99.90
5940;DHT22;2995;-31.998;115.906;2023-04-03T08:34:37;24.90;99.90
5940;DHT22;2995;-31.998;115.906;2023-04-03T08:37:10;24.80;99.90
5940;DHT22;2995;-31.998;115.906;2023-04-03T08:39:41;24.60;99.90
5940;DHT22;2995;-31.998;115.906;2023-04-03T08:42:24;24.60;99.90
5940;DHT22;2995;-31.998;115.906;2023-04-03T08:45:03;24.40;99.90
5940;DHT22;2995;-31.998;115.906;2023-04-03T08:47:40;24.40;99.90
5940;DHT22;2995;-31.998;115.906;2023-04-03T08:50:16;24.40;99.90
5940;DHT22;2995;-31.998;115.906;2023-04-03T08:52:52;24.40;99.90
5940;DHT22;2995;-31.998;115.906;2023-04-03T08:55:29;24.50;99.90
5940;DHT22;2995;-31.998;115.906;2023-04-03T08:58:03;24.50;99.90
5940;DHT22;2995;-31.998;115.906;2023-04-03T09:00:40;24.40;99.90
5940;DHT22;2995;-31.998;115.906;2023-04-03T09:03:15;24.30;99.90
5940;DHT22;2995;-31.998;115.906;2023-04-03T09:05:50;24.30;99.90
5940;DHT22;2995;-31.998;115.906;2023-04-03T09:08:27;24.30;99.90
5940;DHT22;2995;-31.998;115.906;2023-04-03T09:11:06;24.30;99.90
5940;DHT22;2995;-31.998;115.906;2023-04-03T09:13:46;24.40;99.90
5940;DHT22;2995;-31.998;115.906;2023-04-03T09:16:27;24.40;99.90
5940;DHT22;2995;-31.998;115.906;2023-04-03T09:19:06;24.20;99.90
5940;DHT22;2995;-31.998;115.906;2023-04-03T09:21:39;24.10;99.90
5940;DHT22;2995;-31.998;115.906;2023-04-03T09:24:14;24.20;99.90
5940;DHT22;2995;-31.998;115.906;2023-04-03T09:26:48;24.10;99.90
5940;DHT22;2995;-31.998;115.906;2023-04-03T09:29:23;24.00;99.90
5940;DHT22;2995;-31.998;115.906;2023-04-03T09:31:59;23.90;99.90
5940;DHT22;2995;-31.998;115.906;2023-04-03T09:34:32;23.90;99.90
5940;DHT22;2995;-31.998;115.906;2023-04-03T09:37:06;23.80;99.90
5940;DHT22;2995;-31.998;115.906;2023-04-03T09:39:52;23.80;99.90
5940;DHT22;2995;-31.998;115.906;2023-04-03T09:42:24;23.60;99.90
5940;DHT22;2995;-31.998;115.906;2023-04-03T09:44:58;23.60;99.90
5940;DHT22;2995;-31.998;115.906;2023-04-03T09:47:30;23.40;99.90
5940;DHT22;2995;-31.998;115.906;2023-04-03T09:50:19;23.40;99.90
5940;DHT22;2995;-31.998;115.906;2023-04-03T09:52:51;23.30;99.90
5940;DHT22;2995;-31.998;115.906;2023-04-03T09:55:26;23.30;99.90
5940;DHT22;2995;-31.998;115.906;2023-04-03T09:57:59;23.20;99.90
5940;DHT22;2995;-31.998;115.906;2023-04-03T10:00:33;23.10;99.90
5940;DHT22;2995;-31.998;115.906;2023-04-03T10:03:08;23.10;99.90
5940;DHT22;2995;-31.998;115.906;2023-04-03T10:05:53;23.00;99.90
5940;DHT22;2995;-31.998;115.906;2023-04-03T10:08:28;23.00;99.90
5940;DHT22;2995;-31.998;115.906;2023-04-03T10:11:25;23.00;99.90
5940;DHT22;2995;-31.998;115.906;2023-04-03T10:13:58;23.00;99.90
5940;DHT22;2995;-31.998;115.906;2023-04-03T10:16:34;22.90;99.90
5940;DHT22;2995;-31.998;115.906;2023-04-03T10:19:38;22.90;99.90
5940;DHT22;2995;-31.998;115.906;2023-04-03T10:22:22;22.80;99.90
5940;DHT22;2995;-31.998;115.906;2023-04-03T10:25:04;22.80;99.90
5940;DHT22;2995;-31.998;115.906;2023-04-03T10:27:53;22.70;99.90
5940;DHT22;2995;-31.998;115.906;2023-04-03T10:30:42;22.60;99.90
5940;DHT22;2995;-31.998;115.906;2023-04-03T10:33:41;22.60;99.90
5940;DHT22;2995;-31.998;115.906;2023-04-03T10:36:24;22.60;99.90
5940;DHT22;2995;-31.998;115.906;2023-04-03T10:39:02;22.40;99.90
5940;DHT22;2995;-31.998;115.906;2023-04-03T10:41:45;22.40;99.90
5940;DHT22;2995;-31.998;115.906;2023-04-03T10:44:29;22.30;99.90
5940;DHT22;2995;-31.998;115.906;2023-04-03T10:47:05;22.30;99.90
5940;DHT22;2995;-31.998;115.906;2023-04-03T10:49:47;22.20;99.90
5940;DHT22;2995;-31.998;115.906;2023-04-03T10:52:24;22.10;99.90
5940;DHT22;2995;-31.998;115.906;2023-04-03T10:55:06;22.10;99.90
5940;DHT22;2995;-31.998;115.906;2023-04-03T10:57:41;22.10;99.90
5940;DHT22;2995;-31.998;115.906;2023-04-03T11:00:19;22.20;99.90
5940;DHT22;2995;-31.998;115.906;2023-04-03T11:02:54;22.30;99.90
5940;DHT22;2995;-31.998;115.906;2023-04-03T11:05:31;22.20;99.90
5940;DHT22;2995;-31.998;115.906;2023-04-03T11:08:23;22.10;99.90
5940;DHT22;2995;-31.998;115.906;2023-04-03T11:10:57;22.00;99.90
5940;DHT22;2995;-31.998;115.906;2023-04-03T11:13:33;22.00;99.90
5940;DHT22;2995;-31.998;115.906;2023-04-03T11:16:08;21.90;99.90
5940;DHT22;2995;-31.998;115.906;2023-04-03T11:18:43;21.90;99.90
5940;DHT22;2995;-31.998;115.906;2023-04-03T11:21:21;21.80;99.90
5940;DHT22;2995;-31.998;115.906;2023-04-03T11:23:56;21.80;99.90
5940;DHT22;2995;-31.998;115.906;2023-04-03T11:26:30;21.70;99.90
5940;DHT22;2995;-31.998;115.906;2023-04-03T11:29:05;21.70;99.90
5940;DHT22;2995;-31.998;115.906;2023-04-03T11:31:54;21.70;99.90
5940;DHT22;2995;-31.998;115.906;2023-04-03T11:34:35;21.80;99.90
5940;DHT22;2995;-31.998;115.906;2023-04-03T11:37:16;21.80;99.90
5940;DHT22;2995;-31.998;115.906;2023-04-03T11:39:53;21.70;99.90
5940;DHT22;2995;-31.998;115.906;2023-04-03T11:42:30;21.70;99.90
5940;DHT22;2995;-31.998;115.906;2023-04-03T11:45:31;21.70;99.90
5940;DHT22;2995;-31.998;115.906;2023-04-03T11:48:41;21.70;99.90
5940;DHT22;2995;-31.998;115.906;2023-04-03T11:51:01;21.70;99.90
5940;DHT22;2995;-31.998;115.906;2023-04-03T11:53:37;21.60;99.90
5940;DHT22;2995;-31.998;115.906;2023-04-03T11:56:30;21.60;99.90
5940;DHT22;2995;-31.998;115.906;2023-04-03T11:59:24;21.60;99.90
5940;DHT22;2995;-31.998;115.906;2023-04-03T12:01:56;21.50;99.90
5940;DHT22;2995;-31.998;115.906;2023-04-03T12:04:30;21.40;99.90
5940;DHT22;2995;-31.998;115.906;2023-04-03T12:07:14;21.40;99.90
5940;DHT22;2995;-31.998;115.906;2023-04-03T12:13:12;21.40;99.90
5940;DHT22;2995;-31.998;115.906;2023-04-03T12:15:52;21.40;99.90
5940;DHT22;2995;-31.998;115.906;2023-04-03T12:18:55;21.30;99.90
5940;DHT22;2995;-31.998;115.906;2023-04-03T12:24:33;21.30;99.90
5940;DHT22;2995;-31.998;115.906;2023-04-03T12:27:26;21.30;99.90
5940;DHT22;2995;-31.998;115.906;2023-04-03T12:30:13;21.30;99.90
5940;DHT22;2995;-31.998;115.906;2023-04-03T12:32:57;21.40;99.90
5940;DHT22;2995;-31.998;115.906;2023-04-03T12:35:35;21.40;99.90
5940;DHT22;2995;-31.998;115.906;2023-04-03T12:38:37;21.20;99.90
5940;DHT22;2995;-31.998;115.906;2023-04-03T12:41:31;21.20;99.90
5940;DHT22;2995;-31.998;115.906;2023-04-03T12:47:19;21.20;99.90
5940;DHT22;2995;-31.998;115.906;2023-04-03T12:49:53;21.20;99.90
5940;DHT22;2995;-31.998;115.906;2023-04-03T12:52:35;21.30;99.90
5940;DHT22;2995;-31.998;115.906;2023-04-03T12:55:14;21.20;99.90
5940;DHT22;2995;-31.998;115.906;2023-04-03T12:57:50;21.30;99.90
5940;DHT22;2995;-31.998;115.906;2023-04-03T13:00:31;21.10;99.90
5940;DHT22;2995;-31.998;115.906;2023-04-03T13:03:04;21.00;99.90
5940;DHT22;2995;-31.998;115.906;2023-04-03T13:05:35;21.00;99.90
5940;DHT22;2995;-31.998;115.906;2023-04-03T13:08:10;20.90;99.90
5940;DHT22;2995;-31.998;115.906;2023-04-03T13:10:55;20.80;99.90
5940;DHT22;2995;-31.998;115.906;2023-04-03T13:13:29;20.90;99.90
5940;DHT22;2995;-31.998;115.906;2023-04-03T13:16:00;20.80;99.90
5940;DHT22;2995;-31.998;115.906;2023-04-03T13:18:39;20.80;99.90
5940;DHT22;2995;-31.998;115.906;2023-04-03T13:21:15;20.70;99.90
5940;DHT22;2995;-31.998;115.906;2023-04-03T13:23:50;20.70;99.90
5940;DHT22;2995;-31.998;115.906;2023-04-03T13:26:22;20.70;99.90
5940;DHT22;2995;-31.998;115.906;2023-04-03T13:28:59;20.60;99.90
5940;DHT22;2995;-31.998;115.906;2023-04-03T13:31:32;20.50;99.90
5940;DHT22;2995;-31.998;115.906;2023-04-03T13:34:05;20.50;99.90
5940;DHT22;2995;-31.998;115.906;2023-04-03T13:36:38;20.50;99.90
5940;DHT22;2995;-31.998;115.906;2023-04-03T13:39:23;20.60;99.90
5940;DHT22;2995;-31.998;115.906;2023-04-03T13:41:57;20.50;99.90
5940;DHT22;2995;-31.998;115.906;2023-04-03T13:44:35;20.40;99.90
5940;DHT22;2995;-31.998;115.906;2023-04-03T13:47:18;20.40;99.90
5940;DHT22;2995;-31.998;115.906;2023-04-03T13:50:02;20.40;99.90
5940;DHT22;2995;-31.998;115.906;2023-04-03T13:52:42;20.40;99.90
5940;DHT22;2995;-31.998;115.906;2023-04-03T13:55:20;20.30;99.90
5940;DHT22;2995;-31.998;115.906;2023-04-03T13:57:59;20.40;99.90
5940;DHT22;2995;-31.998;115.906;2023-04-03T14:00:38;20.30;99.90
5940;DHT22;2995;-31.998;115.906;2023-04-03T14:03:21;20.40;99.90
5940;DHT22;2995;-31.998;115.906;2023-04-03T14:05:53;20.30;99.90
5940;DHT22;2995;-31.998;115.906;2023-04-03T14:08:24;20.20;99.90
5940;DHT22;2995;-31.998;115.906;2023-04-03T14:10:56;20.20;99.90
5940;DHT22;2995;-31.998;115.906;2023-04-03T14:13:29;20.10;99.90
5940;DHT22;2995;-31.998;115.906;2023-04-03T14:16:03;20.10;99.90
5940;DHT22;2995;-31.998;115.906;2023-04-03T14:18:34;20.10;99.90
5940;DHT22;2995;-31.998;115.906;2023-04-03T14:21:06;20.10;99.90
5940;DHT22;2995;-31.998;115.906;2023-04-03T14:23:37;20.00;99.90
5940;DHT22;2995;-31.998;115.906;2023-04-03T14:26:12;20.00;99.90
5940;DHT22;2995;-31.998;115.906;2023-04-03T14:28:44;20.00;99.90
5940;DHT22;2995;-31.998;115.906;2023-04-03T14:31:18;19.90;99.90
5940;DHT22;2995;-31.998;115.906;2023-04-03T14:33:50;19.90;99.90
5940;DHT22;2995;-31.998;115.906;2023-04-03T14:36:23;19.80;99.90
5940;DHT22;2995;-31.998;115.906;2023-04-03T14:38:56;19.80;99.90
5940;DHT22;2995;-31.998;115.906;2023-04-03T14:41:29;19.90;99.90
5940;DHT22;2995;-31.998;115.906;2023-04-03T14:44:00;19.90;99.90
5940;DHT22;2995;-31.998;115.906;2023-04-03T14:46:35;19.90;99.90
5940;DHT22;2995;-31.998;115.906;2023-04-03T14:49:15;19.80;99.90
5940;DHT22;2995;-31.998;115.906;2023-04-03T14:51:46;19.80;99.90
5940;DHT22;2995;-31.998;115.906;2023-04-03T14:54:20;19.70;99.90
5940;DHT22;2995;-31.998;115.906;2023-04-03T14:56:53;19.60;99.90
5940;DHT22;2995;-31.998;115.906;2023-04-03T14:59:32;19.60;99.90
5940;DHT22;2995;-31.998;115.906;2023-04-03T15:02:22;19.60;99.90
5940;DHT22;2995;-31.998;115.906;2023-04-03T15:04:55;19.60;99.90
5940;DHT22;2995;-31.998;115.906;2023-04-03T15:07:28;19.50;99.90
5940;DHT22;2995;-31.998;115.906;2023-04-03T15:10:01;19.40;99.90
5940;DHT22;2995;-31.998;115.906;2023-04-03T15:12:32;19.30;99.90
5940;DHT22;2995;-31.998;115.906;2023-04-03T15:15:04;19.40;99.90
5940;DHT22;2995;-31.998;115.906;2023-04-03T15:17:38;19.30;99.90
5940;DHT22;2995;-31.998;115.906;2023-04-03T15:20:14;19.40;99.90
5940;DHT22;2995;-31.998;115.906;2023-04-03T15:22:45;19.30;99.90
5940;DHT22;2995;-31.998;115.906;2023-04-03T15:25:17;19.30;99.90
5940;DHT22;2995;-31.998;115.906;2023-04-03T15:27:48;19.40;99.90
5940;DHT22;2995;-31.998;115.906;2023-04-03T15:30:20;19.30;99.90
5940;DHT22;2995;-31.998;115.906;2023-04-03T15:32:54;19.20;99.90
5940;DHT22;2995;-31.998;115.906;2023-04-03T15:35:25;19.10;99.90
5940;DHT22;2995;-31.998;115.906;2023-04-03T15:37:56;19.10;99.90
5940;DHT22;2995;-31.998;115.906;2023-04-03T15:40:28;19.10;99.90
5940;DHT22;2995;-31.998;115.906;2023-04-03T15:42:59;19.00;99.90
5940;DHT22;2995;-31.998;115.906;2023-04-03T15:45:31;19.10;99.90
5940;DHT22;2995;-31.998;115.906;2023-04-03T15:48:05;19.10;99.90
5940;DHT22;2995;-31.998;115.906;2023-04-03T15:50:37;19.00;99.90
5940;DHT22;2995;-31.998;115.906;2023-04-03T15:53:09;19.00;99.90
5940;DHT22;2995;-31.998;115.906;2023-04-03T15:55:40;19.00;99.90
5940;DHT22;2995;-31.998;115.906;2023-04-03T15:58:12;19.00;99.90
5940;DHT22;2995;-31.998;115.906;2023-04-03T16:03:23;19.00;99.90
5940;DHT22;2995;-31.998;115.906;2023-04-03T16:05:55;18.90;99.90
5940;DHT22;2995;-31.998;115.906;2023-04-03T16:08:26;18.70;99.90
5940;DHT22;2995;-31.998;115.906;2023-04-03T16:10:57;18.80;99.90
5940;DHT22;2995;-31.998;115.906;2023-04-03T16:13:29;18.90;99.90
5940;DHT22;2995;-31.998;115.906;2023-04-03T16:16:01;18.90;99.90